Flight Track Log - Related Links

Times and Time Zones

All times are in EDT time to prevent confusion due to time zone crossing. See the LNI33 flight status page for this flight to view local times or setup timezone preferences in your user account.

Time Position Orientation Groundspeed Altitude Reporting Facility
EDT Latitude Longitude Course Direction KTS MPH feet Rate Location/Type
Sun 07:13:21 AM -7.8188 113.4813 296° West 499 574 33,600  Level FlightAware ADS-B (EHTW / ENS)
Sun 07:14:35 AM -7.7442 113.3284 296° West 484 557 35,300 1,297 Climbing FlightAware ADS-B
Sun 07:15:12 AM -7.7088 113.2556 296° West 480 552 36,000 583 Climbing FlightAware ADS-B
Sun 07:15:47 AM -7.6820 113.2005 296° West 482 555 36,000  Level FlightAware ADS-B
Sun 07:16:34 AM -7.6505 113.1359 296° West 482 555 36,000  Level FlightAware ADS-B
Sun 07:17:08 AM -7.6068 113.0460 296° West 482 555 36,000  Level FlightAware ADS-B (EHTW / ENS)
Sun 07:17:45 AM -7.5832 112.9977 296° West 482 555 36,000  Level FlightAware ADS-B
Sun 07:18:20 AM -7.5374 112.9038 296° West 482 555 36,000  Level FlightAware ADS-B (EHTW / ENS)
Sun 07:18:51 AM -7.5013 112.8301 296° West 482 555 36,000  Level FlightAware ADS-B
Sun 07:19:36 AM -7.4603 112.7464 296° West 480 552 36,000  Level FlightAware ADS-B (EHTW / ENS)
Sun 07:20:12 AM -7.4198 112.6638 296° West 478 550 36,000  Level FlightAware ADS-B
Sun 07:20:44 AM -7.3826 112.5877 296° West 476 548 36,000  Level FlightAware ADS-B
Sun 07:21:15 AM -7.3580 112.5371 296° West 475 547 36,000  Level FlightAware ADS-B (EHTW / ENS)
Sun 07:21:55 AM -7.3318 112.4835 296° West 475 547 36,000  Level FlightAware ADS-B
Sun 07:23:11 AM -7.2435 112.3028 296° West 472 543 36,000  Level FlightAware ADS-B (EHTW / ENS)
Sun 07:25:09 AM -7.2159 112.2465 296° West 472 543 36,000  Level FlightAware ADS-B (EHTW / ENS)
Sun 07:27:00 AM -7.1503 111.8996 281° West  Level Estimated
Sun 07:28:00 AM -7.1147 111.7122 281° West  Level Estimated
Sun 07:29:00 AM -7.0791 111.5248 281° West  Level Estimated
Sun 07:30:00 AM -7.0433 111.3374 281° West  Level Estimated
Sun 07:31:00 AM -7.0075 111.1500 281° West  Level Estimated
Sun 07:32:00 AM -6.9716 110.9627 281° West  Level Estimated
Sun 07:33:00 AM -6.9357 110.7754 281° West  Level Estimated
Sun 07:34:00 AM -6.8997 110.5882 281° West  Level Estimated
Sun 07:35:00 AM -6.8636 110.4009 281° West  Level Estimated
Sun 07:36:00 AM -6.8274 110.2137 281° West  Level Estimated
Sun 07:37:00 AM -6.7911 110.0266 281° West  Level Estimated
Sun 07:38:00 AM -6.7548 109.8394 281° West  Level Estimated
Sun 07:39:00 AM -6.7184 109.6523 281° West  Level Estimated
Sun 07:40:00 AM -6.6820 109.4652 281° West  Level Estimated
Sun 07:41:00 AM -6.6454 109.2781 281° West  Level Estimated
Sun 07:42:00 AM -6.6088 109.0911 281° West  Level Estimated
Sun 07:43:00 AM -6.5722 108.9041 281° West  Level Estimated
Sun 07:44:00 AM -6.5354 108.7171 281° West  Level Estimated
Sun 07:45:00 AM -6.4986 108.5301 281° West  Level Estimated
Sun 07:46:00 AM -6.4617 108.3432 281° West  Level Estimated
Sun 07:47:00 AM -6.4248 108.1563 281° West  Level Estimated
Sun 07:48:00 AM -6.3878 107.9694 281° West  Level Estimated
Sun 07:49:00 AM -6.3507 107.7826 281° West  Level Estimated
Sun 07:50:00 AM -6.3135 107.5958 281° West  Level Estimated
Sun 07:51:00 AM -6.2763 107.4090 281° West  Level Estimated
Sun 07:52:00 AM -6.2390 107.2222 281° West  Level Estimated
Sun 07:53:00 AM -6.2017 107.0355 281° West  Level Estimated
Sun 07:54:00 AM -6.1643 106.8487 281° West  Level Estimated
Sun 07:55:00 AM -6.1268 106.6621 281° West  Level Estimated
Sun 07:56:00 AM -6.1256 106.6559 281° West  Level Estimated
Sun 07:57:00 AM -6.1256 106.6559 North  Level Estimated
Sun 07:58:00 AM -6.1256 106.6559 North  Level Estimated
Sun 07:59:00 AM -6.1256 106.6559 North  Level Estimated
Sun 08:00:00 AM -6.1256 106.6559 North  Level Estimated
Sun 08:01:00 AM -6.1256 106.6559 North  Level Estimated
Sun 08:02:00 AM -6.1256 106.6559 North  Level Estimated
Sun 08:03:00 AM -6.1256 106.6559 North  Level Estimated
Sun 08:04:00 AM -6.1256 106.6559 North  Level Estimated
Sun 08:05:00 AM -6.1256 106.6559 North  Level Estimated
Sun 08:06:00 AM -6.1256 106.6559 North  Level Estimated
Sun 08:07:00 AM -6.1256 106.6559 North  Level Estimated
Sun 08:08:00 AM -6.1256 106.6559 North  Level Estimated
Sun 08:09:00 AM -6.1256 106.6559 North  Level Estimated
Sun 08:10:00 AM -6.1256 106.6559 North  Level Estimated
Sun 08:11:00 AM -6.1256 106.6559 North  Level Estimated
Sun 08:12:00 AM -6.1256 106.6559 North  Level Estimated
Sun 08:13:00 AM -6.1256 106.6559 North  Level Estimated
Sun 08:14:00 AM -6.1256 106.6559 North  Level Estimated
Sun 08:15:00 AM -6.1256 106.6559 North  Level Estimated
Sun 08:16:00 AM -6.1256 106.6559 North  Level Estimated

Login

Don't have an account? Register now (free) for customized features, flight alerts, and more!